CSKFT RPVB-RPVI
Flight info
| Callsign | CSKFT |
|---|---|
| Flight time | 0h 22m |
| Altitude | 3500 |
| Route | IOO2A IOO |
| Aircraft | BE58/L-SDFGRY/C |
Departure
| Time | 2026-05-07 20:53 |
|---|---|
| Airport | Bacolod-Silay International Airport (RPVB) |
Arrival
| Time | 2026-05-07 21:15 |
|---|---|
| Airport | Iloilo International Airport (RPVI) |
| Time | Latitude | Longitude | Altitude | Speed | Heading |
|---|---|---|---|---|---|
| 2026-05-07 20:39 | 10.77292 | 123.01374 | 75 ft | 0 kts | 308° |
| 2026-05-07 20:44 | 10.77293 | 123.01369 | 81 ft | 4 kts | 255° |
| 2026-05-07 20:44 | 10.77268 | 123.01388 | 81 ft | 1 kts | 46° |
| 2026-05-07 20:44 | 10.77286 | 123.01400 | 81 ft | 6 kts | 28° |
| 2026-05-07 20:45 | 10.77316 | 123.01440 | 81 ft | 7 kts | 101° |
| 2026-05-07 20:45 | 10.77344 | 123.01473 | 81 ft | 9 kts | 29° |
| 2026-05-07 20:45 | 10.77372 | 123.01514 | 81 ft | 9 kts | 131° |
| 2026-05-07 20:45 | 10.77329 | 123.01577 | 81 ft | 9 kts | 123° |
| 2026-05-07 20:46 | 10.77320 | 123.01591 | 84 ft | 0 kts | 121° |
| 2026-05-07 20:46 | 10.77310 | 123.01609 | 81 ft | 10 kts | 118° |
| 2026-05-07 20:46 | 10.77241 | 123.01655 | 81 ft | 16 kts | 192° |
| 2026-05-07 20:47 | 10.77128 | 123.01598 | 82 ft | 21 kts | 210° |
| 2026-05-07 20:47 | 10.76998 | 123.01524 | 83 ft | 20 kts | 208° |
| 2026-05-07 20:47 | 10.76911 | 123.01432 | 83 ft | 12 kts | 196° |
| 2026-05-07 20:47 | 10.76907 | 123.01468 | 83 ft | 0 kts | 28° |
| 2026-05-07 20:52 | 10.77155 | 123.01612 | 82 ft | 81 kts | 28° |
| 2026-05-07 20:52 | 10.77759 | 123.01949 | 265 ft | 109 kts | 28° |
| 2026-05-07 20:52 | 10.78465 | 123.02347 | 526 ft | 125 kts | 31° |
| 2026-05-07 20:52 | 10.79269 | 123.02821 | 631 ft | 149 kts | 31° |
| 2026-05-07 20:53 | 10.80229 | 123.03391 | 661 ft | 165 kts | 30° |
| 2026-05-07 20:53 | 10.81233 | 123.03990 | 800 ft | 166 kts | 32° |
| 2026-05-07 20:53 | 10.82217 | 123.04580 | 961 ft | 164 kts | 33° |
| 2026-05-07 20:53 | 10.83199 | 123.05163 | 1240 ft | 162 kts | 32° |
| 2026-05-07 20:54 | 10.84152 | 123.05724 | 1527 ft | 154 kts | 32° |
| 2026-05-07 20:54 | 10.85060 | 123.06230 | 1795 ft | 148 kts | 26° |
| 2026-05-07 20:54 | 10.86077 | 123.06198 | 2077 ft | 155 kts | 345° |
| 2026-05-07 20:54 | 10.86837 | 123.05399 | 2353 ft | 167 kts | 295° |
| 2026-05-07 20:55 | 10.86799 | 123.04234 | 2634 ft | 168 kts | 248° |
| 2026-05-07 20:55 | 10.86374 | 123.03131 | 2922 ft | 167 kts | 247° |
| 2026-05-07 20:55 | 10.86097 | 123.02404 | 3107 ft | 167 kts | 246° |
| 2026-05-07 20:55 | 10.85683 | 123.01304 | 3398 ft | 166 kts | 247° |
| 2026-05-07 20:56 | 10.85267 | 123.00209 | 3687 ft | 167 kts | 246° |
| 2026-05-07 20:56 | 10.84844 | 122.99103 | 3980 ft | 168 kts | 246° |
| 2026-05-07 20:56 | 10.84419 | 122.97997 | 4264 ft | 168 kts | 246° |
| 2026-05-07 20:56 | 10.84000 | 122.96892 | 4556 ft | 167 kts | 247° |
| 2026-05-07 20:57 | 10.83582 | 122.95790 | 4839 ft | 167 kts | 247° |
| 2026-05-07 20:57 | 10.83157 | 122.94674 | 4995 ft | 176 kts | 247° |
| 2026-05-07 20:57 | 10.82689 | 122.93459 | 5001 ft | 191 kts | 246° |
| 2026-05-07 20:57 | 10.82189 | 122.92161 | 5004 ft | 202 kts | 247° |
| 2026-05-07 20:58 | 10.81662 | 122.90803 | 5000 ft | 210 kts | 247° |
| 2026-05-07 20:58 | 10.81116 | 122.89404 | 5003 ft | 215 kts | 247° |
| 2026-05-07 20:58 | 10.80556 | 122.87985 | 5003 ft | 217 kts | 247° |
| 2026-05-07 20:58 | 10.79981 | 122.86552 | 5002 ft | 221 kts | 247° |
| 2026-05-07 20:59 | 10.79454 | 122.85101 | 5003 ft | 223 kts | 257° |
| 2026-05-07 20:59 | 10.79375 | 122.83533 | 4996 ft | 222 kts | 278° |
| 2026-05-07 20:59 | 10.79572 | 122.81976 | 4995 ft | 222 kts | 279° |
| 2026-05-07 20:59 | 10.79761 | 122.80416 | 4997 ft | 223 kts | 278° |
| 2026-05-07 21:00 | 10.79950 | 122.78848 | 4997 ft | 223 kts | 279° |
| 2026-05-07 21:00 | 10.80141 | 122.77281 | 4995 ft | 223 kts | 279° |
| 2026-05-07 21:00 | 10.80331 | 122.75714 | 4995 ft | 223 kts | 279° |
| 2026-05-07 21:00 | 10.80522 | 122.74144 | 4994 ft | 223 kts | 279° |
| 2026-05-07 21:01 | 10.80712 | 122.72578 | 4999 ft | 222 kts | 278° |
| 2026-05-07 21:01 | 10.80901 | 122.71018 | 4994 ft | 222 kts | 278° |
| 2026-05-07 21:01 | 10.81090 | 122.69458 | 4994 ft | 223 kts | 279° |
| 2026-05-07 21:01 | 10.81280 | 122.67896 | 4990 ft | 223 kts | 279° |
| 2026-05-07 21:02 | 10.81470 | 122.66332 | 4990 ft | 222 kts | 279° |
| 2026-05-07 21:02 | 10.81659 | 122.64773 | 4991 ft | 222 kts | 278° |
| 2026-05-07 21:02 | 10.81847 | 122.63216 | 4991 ft | 222 kts | 278° |
| 2026-05-07 21:02 | 10.82036 | 122.61654 | 5001 ft | 223 kts | 279° |
| 2026-05-07 21:03 | 10.82224 | 122.60090 | 4996 ft | 223 kts | 280° |
| 2026-05-07 21:03 | 10.82415 | 122.58524 | 4995 ft | 223 kts | 279° |
| 2026-05-07 21:03 | 10.82605 | 122.56957 | 4997 ft | 223 kts | 280° |
| 2026-05-07 21:03 | 10.82791 | 122.55407 | 4999 ft | 223 kts | 279° |
| 2026-05-07 21:04 | 10.82979 | 122.53839 | 4999 ft | 224 kts | 279° |
| 2026-05-07 21:04 | 10.83169 | 122.52268 | 4999 ft | 224 kts | 279° |
| 2026-05-07 21:04 | 10.83361 | 122.50694 | 5006 ft | 224 kts | 279° |
| 2026-05-07 21:04 | 10.83546 | 122.49117 | 5006 ft | 225 kts | 278° |
| 2026-05-07 21:05 | 10.84003 | 122.47638 | 4997 ft | 217 kts | 309° |
| 2026-05-07 21:05 | 10.85139 | 122.46727 | 4989 ft | 205 kts | 345° |
| 2026-05-07 21:05 | 10.86449 | 122.46406 | 4879 ft | 179 kts | 355° |
| 2026-05-07 21:05 | 10.87625 | 122.46184 | 4724 ft | 167 kts | 355° |
| 2026-05-07 21:06 | 10.88743 | 122.45972 | 4569 ft | 161 kts | 356° |
| 2026-05-07 21:06 | 10.89823 | 122.45766 | 4404 ft | 155 kts | 356° |
| 2026-05-07 21:06 | 10.90864 | 122.45573 | 4247 ft | 150 kts | 355° |
| 2026-05-07 21:06 | 10.91888 | 122.45390 | 4092 ft | 148 kts | 356° |
| 2026-05-07 21:07 | 10.92905 | 122.45200 | 3943 ft | 150 kts | 355° |
| 2026-05-07 21:07 | 10.93945 | 122.45038 | 3798 ft | 151 kts | 1° |
| 2026-05-07 21:07 | 10.94977 | 122.45032 | 3659 ft | 149 kts | 8° |
| 2026-05-07 21:07 | 10.96009 | 122.45107 | 3529 ft | 148 kts | 14° |
| 2026-05-07 21:08 | 10.96991 | 122.45380 | 3390 ft | 146 kts | 27° |
| 2026-05-07 21:08 | 10.97876 | 122.45871 | 3250 ft | 144 kts | 31° |
| 2026-05-07 21:08 | 10.98752 | 122.46375 | 3108 ft | 145 kts | 31° |
| 2026-05-07 21:08 | 10.99649 | 122.46893 | 2974 ft | 151 kts | 31° |
| 2026-05-07 21:09 | 11.00559 | 122.47426 | 2822 ft | 150 kts | 31° |
| 2026-05-07 21:09 | 11.01449 | 122.47945 | 2679 ft | 145 kts | 31° |
| 2026-05-07 21:09 | 11.02327 | 122.48452 | 2538 ft | 146 kts | 30° |
| 2026-05-07 21:09 | 11.03209 | 122.48964 | 2393 ft | 146 kts | 31° |
| 2026-05-07 21:10 | 11.03979 | 122.49616 | 2254 ft | 148 kts | 59° |
| 2026-05-07 21:10 | 11.04099 | 122.50645 | 2116 ft | 156 kts | 100° |
| 2026-05-07 21:10 | 11.03468 | 122.51565 | 2003 ft | 165 kts | 138° |
| 2026-05-07 21:10 | 11.02392 | 122.51989 | 2004 ft | 168 kts | 161° |
| 2026-05-07 21:11 | 11.01234 | 122.52165 | 2005 ft | 168 kts | 166° |
| 2026-05-07 21:11 | 11.00081 | 122.52298 | 2000 ft | 165 kts | 167° |
| 2026-05-07 21:11 | 10.97840 | 122.52553 | 1989 ft | 161 kts | 166° |
| 2026-05-07 21:12 | 10.96713 | 122.52689 | 1994 ft | 166 kts | 167° |
| 2026-05-07 21:12 | 10.95559 | 122.52832 | 1992 ft | 167 kts | 169° |
| 2026-05-07 21:12 | 10.94417 | 122.52967 | 2005 ft | 162 kts | 174° |
| 2026-05-07 21:12 | 10.93299 | 122.52885 | 1929 ft | 161 kts | 185° |
| 2026-05-07 21:13 | 10.92200 | 122.52629 | 1836 ft | 163 kts | 193° |
| 2026-05-07 21:13 | 10.91119 | 122.52269 | 1657 ft | 164 kts | 198° |
| 2026-05-07 21:13 | 10.90089 | 122.51873 | 1415 ft | 150 kts | 198° |
| 2026-05-07 21:13 | 10.89166 | 122.51517 | 1150 ft | 139 kts | 200° |
| 2026-05-07 21:14 | 10.88269 | 122.51170 | 961 ft | 136 kts | 197° |
| 2026-05-07 21:14 | 10.87349 | 122.50843 | 735 ft | 144 kts | 193° |
| 2026-05-07 21:14 | 10.86432 | 122.50496 | 616 ft | 140 kts | 198° |
| 2026-05-07 21:14 | 10.85544 | 122.50169 | 437 ft | 132 kts | 198° |
| 2026-05-07 21:15 | 10.84694 | 122.49850 | 241 ft | 129 kts | 197° |
| 2026-05-07 21:15 | 10.83883 | 122.49549 | 146 ft | 115 kts | 197° |
| 2026-05-07 21:15 | 10.83236 | 122.49313 | 136 ft | 72 kts | 201° |
| 2026-05-07 21:15 | 10.83052 | 122.49267 | 133 ft | 7 kts | 25° |
| 2026-05-07 21:16 | 10.83093 | 122.49287 | 134 ft | 6 kts | 60° |
| 2026-05-07 21:16 | 10.83094 | 122.49301 | 134 ft | 0 kts | 111° |
| 2026-05-07 21:16 | 10.83089 | 122.49312 | 134 ft | 11 kts | 111° |
| 2026-05-07 21:16 | 10.83052 | 122.49427 | 134 ft | 20 kts | 106° |
| 2026-05-07 21:17 | 10.82996 | 122.49542 | 134 ft | 16 kts | 115° |
| 2026-05-07 21:17 | 10.82999 | 122.49596 | 134 ft | 4 kts | 336° |
| 2026-05-07 21:17 | 10.83000 | 122.49595 | 134 ft | 0 kts | 322° |